TimeEDT,TemperatureF,Dew PointF,Humidity,Sea Level PressureIn,VisibilityMPH,Wind Direction,Wind SpeedMPH,Gust SpeedMPH,PrecipitationIn,Events,Conditions,WindDirDegrees,DateUTC
12:52 AM,24.1,17.1,75,29.69,9.0,SW,4.6,-,0.00,Snow,Light Snow,230,2013-03-23 04:52:00
1:50 AM,23.0,17.6,80,29.64,9.0,SSW,5.8,-,0.00,Snow,Light Snow,210,2013-03-23 05:50:00
1:52 AM,23.0,18.0,81,29.68,9.0,SW,5.8,-,0.00,,Overcast,220,2013-03-23 05:52:00
2:52 AM,23.0,18.0,81,29.67,7.0,SW,4.6,-,0.00,Snow,Light Snow,230,2013-03-23 06:52:00
3:07 AM,23.0,17.6,80,29.62,5.0,SW,5.8,-,0.00,Snow,Light Snow,220,2013-03-23 07:07:00
3:23 AM,23.0,17.6,80,29.61,7.0,SW,6.9,-,0.00,Snow,Light Snow,220,2013-03-23 07:23:00
3:45 AM,23.0,17.6,80,29.60,6.0,SW,5.8,-,0.00,Snow,Light Snow,220,2013-03-23 07:45:00
3:52 AM,21.9,18.0,85,29.64,5.0,SW,5.8,-,0.00,Snow,Light Snow,220,2013-03-23 07:52:00
4:52 AM,23.0,19.0,85,29.62,10.0,SSW,4.6,-,0.00,,Overcast,210,2013-03-23 08:52:00
5:52 AM,24.1,19.0,81,29.63,9.0,SW,8.1,-,0.00,Snow,Light Snow,230,2013-03-23 09:52:00
6:28 AM,24.8,19.4,80,29.58,9.0,SW,3.5,-,0.00,,Overcast,220,2013-03-23 10:28:00
6:43 AM,24.8,19.4,80,29.58,8.0,SSW,3.5,-,0.00,Snow,Light Snow,210,2013-03-23 10:43:00
6:52 AM,24.1,19.9,84,29.63,6.0,SSW,4.6,-,0.00,Snow,Light Snow,210,2013-03-23 10:52:00
7:52 AM,26.1,19.0,75,29.62,9.0,West,9.2,-,0.00,Snow,Light Snow,260,2013-03-23 11:52:00
8:17 AM,26.6,19.4,74,29.57,1.8,WSW,10.4,-,0.00,Snow,Light Snow,250,2013-03-23 12:17:00
8:39 AM,26.6,19.4,74,29.57,3.0,WSW,9.2,-,0.00,Snow,Light Snow,250,2013-03-23 12:39:00
8:52 AM,26.1,19.9,78,29.62,3.0,West,8.1,-,0.00,Snow,Light Snow,270,2013-03-23 12:52:00
9:52 AM,28.0,19.9,72,29.61,7.0,West,8.1,-,0.00,Snow,Light Snow,260,2013-03-23 13:52:00
10:10 AM,28.4,19.4,69,29.57,7.0,West,13.8,19.6,0.00,Snow,Light Snow,260,2013-03-23 14:10:00
10:22 AM,28.4,19.4,69,29.56,5.0,West,11.5,20.7,0.00,Snow,Light Snow,270,2013-03-23 14:22:00
10:52 AM,30.0,19.0,64,29.59,10.0,West,12.7,29.9,0.00,,Overcast,260,2013-03-23 14:52:00
11:24 AM,30.2,17.6,60,29.54,9.0,West,18.4,27.6,0.00,,Overcast,260,2013-03-23 15:24:00
11:52 AM,30.0,18.0,61,29.59,10.0,West,13.8,29.9,0.00,Snow,Light Snow,260,2013-03-23 15:52:00
12:11 PM,30.2,19.4,64,29.55,3.0,West,15.0,25.3,0.00,Snow,Light Snow,270,2013-03-23 16:11:00
12:22 PM,30.2,21.2,69,29.55,2.5,West,11.5,20.7,0.00,Snow,Light Snow,270,2013-03-23 16:22:00
12:32 PM,30.2,21.2,69,29.55,4.0,West,13.8,19.6,0.00,Snow,Light Snow,260,2013-03-23 16:32:00
12:52 PM,30.0,21.9,72,29.60,4.0,West,11.5,19.6,0.00,Snow,Light Snow,260,2013-03-23 16:52:00
1:16 PM,32.0,19.4,60,29.55,9.0,WNW,12.7,20.7,0.00,Snow,Light Snow,290,2013-03-23 17:16:00
1:47 PM,30.2,21.2,69,29.56,3.0,WNW,19.6,31.1,0.00,Snow,Light Snow,290,2013-03-23 17:47:00
1:52 PM,30.9,21.0,67,29.60,3.0,WNW,13.8,31.1,0.00,Snow,Light Snow,290,2013-03-23 17:52:00
2:02 PM,30.2,21.2,69,29.56,2.0,WNW,20.7,27.6,0.00,Snow,Light Snow,290,2013-03-23 18:02:00
2:21 PM,30.2,21.2,69,29.57,3.0,West,17.3,25.3,0.00,Snow,Light Snow,280,2013-03-23 18:21:00
2:32 PM,30.2,23.0,75,29.58,2.0,West,15.0,27.6,0.00,Snow,Light Snow,280,2013-03-23 18:32:00
2:52 PM,30.9,23.0,72,29.63,2.0,WNW,12.7,26.5,0.00,Snow,Light Snow,290,2013-03-23 18:52:00
3:17 PM,30.2,23.0,75,29.59,4.0,West,11.5,19.6,0.00,Snow,Light Snow,280,2013-03-23 19:17:00
3:52 PM,30.9,21.0,67,29.64,7.0,WNW,16.1,24.2,0.00,Snow,Light Snow,290,2013-03-23 19:52:00
4:27 PM,30.2,21.2,69,29.61,9.0,West,15.0,20.7,0.00,Snow,Light Snow,280,2013-03-23 20:27:00
4:45 PM,30.2,21.2,69,29.62,9.0,West,11.5,20.7,0.00,Snow,Light Snow,280,2013-03-23 20:45:00
4:52 PM,30.9,21.0,67,29.66,9.0,West,15.0,23.0,0.00,Snow,Light Snow,280,2013-03-23 20:52:00
4:59 PM,30.2,21.2,69,29.62,8.0,WNW,11.5,23.0,0.00,Snow,Light Snow,290,2013-03-23 20:59:00
5:19 PM,30.2,21.2,69,29.62,5.0,West,13.8,19.6,0.00,Snow,Light Snow,260,2013-03-23 21:19:00
5:52 PM,32.0,21.0,64,29.68,9.0,West,15.0,24.2,0.00,Snow,Light Snow,280,2013-03-23 21:52:00
6:52 PM,32.0,21.0,64,29.70,10.0,West,15.0,26.5,0.00,,Overcast,270,2013-03-23 22:52:00
7:52 PM,30.9,21.9,69,29.72,9.0,WSW,12.7,21.9,0.00,Snow,Light Snow,250,2013-03-23 23:52:00
8:44 PM,30.2,21.2,69,29.70,7.0,West,9.2,17.3,0.00,Snow,Light Snow,270,2013-03-24 00:44:00
8:52 PM,30.9,21.9,69,29.75,9.0,WSW,9.2,-,0.00,Snow,Light Snow,240,2013-03-24 00:52:00
9:52 PM,30.0,23.0,75,29.76,6.0,West,8.1,-,0.00,Snow,Light Snow,280,2013-03-24 01:52:00
10:52 PM,30.9,21.9,69,29.75,9.0,West,10.4,-,0.00,Snow,Light Snow,280,2013-03-24 02:52:00
11:52 PM,30.0,21.9,72,29.75,10.0,SW,4.6,-,0.00,,Overcast,230,2013-03-24 03:52:00